Time;durP1;ratioP1;P1;durP2;ratioP2;P2;SDS_P1;SDS_P2;PMS_P1;PMS_P2;Temp;Humidity;BMP_temperature;BMP_pressure;BME280_temperature;BME280_humidity;BME280_pressure;Samples;Min_cycle;Max_cycle;Signal;HPM_P1;HPM_P2
2023/09/15 00:01:49;;;;;;;25.17;9.80;;;;;;;22.36;63.06;99375.34;4974490;28;20042;-73
2023/09/15 00:04:15;;;;;;;17.58;9.93;;;;;;;22.59;62.03;99374.78;4977932;28;20018;-73
2023/09/15 00:06:42;;;;;;;19.52;10.63;;;;;;;22.70;61.51;99374.72;4993850;28;20022;-74
2023/09/15 00:09:14;;;;;;;19.30;9.95;;;;;;;22.72;61.22;99378.72;4993808;28;20072;-74
2023/09/15 00:11:40;;;;;;;21.88;11.38;;;;;;;22.74;61.26;99372.63;4980348;28;20034;-73
2023/09/15 00:14:10;;;;;;;17.73;10.02;;;;;;;22.73;61.33;99376.72;4974282;28;20428;-73
2023/09/15 00:16:38;;;;;;;21.90;9.88;;;;;;;22.81;61.29;99375.41;4974248;28;20026;-73
2023/09/15 00:19:05;;;;;;;24.17;10.07;;;;;;;22.85;60.84;99376.19;4973962;28;20030;-73
2023/09/15 00:21:32;;;;;;;19.83;9.70;;;;;;;22.81;61.22;99378.28;4983922;28;20030;-73
2023/09/15 00:23:58;;;;;;;29.23;10.75;;;;;;;22.80;61.30;99373.78;4993649;28;20470;-74
2023/09/15 00:26:24;;;;;;;16.55;10.85;;;;;;;22.82;61.13;99377.03;4992801;28;20074;-74
2023/09/15 00:28:50;;;;;;;19.50;10.35;;;;;;;22.78;61.47;99384.00;4993569;28;20570;-74
2023/09/15 00:31:15;;;;;;;15.93;10.40;;;;;;;22.74;61.47;99381.19;4985582;28;20575;-74
2023/09/15 00:33:41;;;;;;;17.75;10.40;;;;;;;22.66;61.97;99379.59;4972724;28;20117;-74
2023/09/15 00:36:06;;;;;;;22.08;11.50;;;;;;;22.60;62.30;99367.06;4974382;28;20023;-73
2023/09/15 00:38:32;;;;;;;18.60;10.65;;;;;;;22.52;62.27;99369.94;4992682;28;20026;-73
2023/09/15 00:40:58;;;;;;;18.52;10.15;;;;;;;22.20;64.22;99370.16;4991707;28;20507;-73
2023/09/15 00:43:23;;;;;;;23.45;10.75;;;;;;;22.36;63.00;99378.19;4993278;28;20022;-73
2023/09/15 00:45:49;;;;;;;27.77;11.32;;;;;;;22.41;63.21;99369.19;4992847;28;20061;-73
2023/09/15 00:48:17;;;;;;;16.15;9.70;;;;;;;22.31;63.39;99373.75;4992777;28;20029;-73
2023/09/15 00:50:43;;;;;;;13.65;9.02;;;;;;;22.14;63.87;99384.03;4990010;28;20031;-73
2023/09/15 00:53:20;;;;;;;22.50;10.18;;;;;;;22.28;63.78;99386.00;4973578;28;20037;-74
2023/09/15 00:55:47;;;;;;;17.88;10.68;;;;;;;22.09;64.88;99387.34;4978694;28;20030;-73
2023/09/15 00:58:16;;;;;;;23.50;9.85;;;;;;;22.00;64.97;99390.63;4992860;28;20073;-73
2023/09/15 01:00:43;;;;;;;16.38;9.60;;;;;;;21.98;64.95;99384.53;4992244;28;20069;-73
2023/09/15 01:03:11;;;;;;;16.58;8.93;;;;;;;22.11;64.46;99399.13;4992554;28;20018;-73
2023/09/15 01:05:38;;;;;;;18.08;10.13;;;;;;;22.07;64.36;99390.59;4973275;28;20035;-73
2023/09/15 01:08:04;;;;;;;11.93;9.00;;;;;;;21.83;65.50;99395.19;4982071;28;20029;-73
2023/09/15 01:10:30;;;;;;;21.50;11.90;;;;;;;21.77;66.05;99394.81;4973672;28;20547;-73
2023/09/15 01:12:56;;;;;;;17.90;9.25;;;;;;;21.42;67.58;99402.25;4991529;28;20026;-74
2023/09/15 01:15:50;;;;;;;19.83;10.75;;;;;;;21.42;67.42;99413.63;4992537;28;20034;-73
2023/09/15 01:18:37;;;;;;;17.45;10.98;;;;;;;21.55;67.04;99411.13;4989868;28;20041;-74
2023/09/15 01:21:06;;;;;;;21.67;10.70;;;;;;;21.48;67.52;99409.13;4990452;28;20033;-73
2023/09/15 01:23:59;;;;;;;17.17;10.40;;;;;;;21.46;67.45;99400.19;4972977;28;20058;-73
2023/09/15 01:26:36;;;;;;;27.50;10.30;;;;;;;21.39;67.61;99409.56;4977576;28;20486;-73
2023/09/15 01:29:49;;;;;;;13.32;10.18;;;;;;;20.84;69.82;99414.53;4991491;28;20034;-73
2023/09/15 01:32:18;;;;;;;21.00;10.48;;;;;;;20.65;70.61;99410.03;4963912;28;20101;-73
2023/09/15 01:34:49;;;;;;;15.82;9.48;;;;;;;20.88;70.02;99415.34;4991384;28;20057;-73
2023/09/15 01:37:15;;;;;;;17.67;10.88;;;;;;;20.94;69.35;99417.78;4992282;28;20018;-73
2023/09/15 01:39:40;;;;;;;19.35;10.70;;;;;;;20.87;69.66;99418.59;4976253;28;20018;-74
2023/09/15 01:42:06;;;;;;;15.07;9.23;;;;;;;20.86;69.44;99426.28;4991743;28;20114;-74
2023/09/15 01:44:31;;;;;;;19.15;10.65;;;;;;;21.02;68.91;99431.56;4991351;28;20053;-74
2023/09/15 01:46:57;;;;;;;17.67;11.35;;;;;;;21.14;69.02;99435.22;4991881;28;20403;-74
2023/09/15 01:49:24;;;;;;;17.95;10.48;;;;;;;21.19;68.40;99429.13;4991914;28;20037;-74
2023/09/15 01:51:51;;;;;;;21.92;11.05;;;;;;;21.26;67.71;99420.56;4991217;28;20482;-73
2023/09/15 01:54:17;;;;;;;21.90;9.85;;;;;;;20.92;69.11;99428.75;4991785;28;20206;-73
2023/09/15 01:56:44;;;;;;;23.20;10.15;;;;;;;20.56;70.97;99443.72;4991628;28;20377;-73
2023/09/15 01:59:09;;;;;;;18.75;9.55;;;;;;;20.56;71.11;99438.84;4990994;28;20097;-73
2023/09/15 02:01:35;;;;;;;23.90;11.52;;;;;;;20.69;70.44;99436.41;4990373;28;20065;-73
2023/09/15 02:04:00;;;;;;;26.67;11.73;;;;;;;20.90;69.21;99434.81;4990246;28;20030;-74
2023/09/15 02:06:26;;;;;;;22.58;11.70;;;;;;;20.94;69.19;99435.66;4991759;28;20097;-74
2023/09/15 02:08:51;;;;;;;18.85;11.00;;;;;;;21.16;68.34;99444.97;4987023;28;20026;-74
2023/09/15 02:11:18;;;;;;;25.33;11.55;;;;;;;21.20;68.04;99444.97;4972260;28;20027;-74
2023/09/15 02:13:43;;;;;;;18.23;11.50;;;;;;;21.23;67.95;99449.81;4972453;28;20027;-73
2023/09/15 02:16:11;;;;;;;30.52;10.82;;;;;;;21.29;67.63;99441.69;4982621;28;20072;-74
2023/09/15 02:18:36;;;;;;;21.23;11.05;;;;;;;21.28;67.62;99434.38;4991641;28;20034;-75
2023/09/15 02:21:03;;;;;;;27.77;10.32;;;;;;;21.20;67.48;99432.75;4986865;28;20085;-75
2023/09/15 02:23:29;;;;;;;21.63;10.43;;;;;;;21.21;67.01;99443.75;4968517;28;20085;-76
2023/09/15 02:25:54;;;;;;;23.65;10.13;;;;;;;;;;4977317;28;20053;-76
2023/09/15 02:28:20;;;;;;;19.58;9.48;;;;;;;21.36;65.96;99450.22;4974095;28;20034;-76
2023/09/15 02:30:46;;;;;;;29.48;10.82;;;;;;;21.41;65.65;99452.63;4991287;28;20492;-77
2023/09/15 02:33:12;;;;;;;21.90;10.50;;;;;;;21.41;65.56;99449.78;4990409;28;20058;-76
2023/09/15 02:35:37;;;;;;;27.40;11.48;;;;;;;21.34;65.89;99458.31;4991553;28;20122;-76
2023/09/15 02:38:03;;;;;;;35.10;11.88;;;;;;;21.18;67.12;99456.72;4979316;28;20031;-77
2023/09/15 02:40:30;;;;;;;18.33;10.80;;;;;;;21.18;67.73;99462.41;4972238;28;20512;-74
2023/09/15 02:42:56;;;;;;;24.65;11.30;;;;;;;21.02;69.04;99462.84;4972096;28;20031;-79
2023/09/15 02:45:21;;;;;;;31.77;11.65;;;;;;;20.79;70.26;99465.25;4970935;28;20038;-76
2023/09/15 02:47:47;;;;;;;18.55;10.52;;;;;;;20.48;70.76;99466.44;4985765;28;20062;-80
2023/09/15 02:50:12;;;;;;;23.33;11.57;;;;;;;20.42;71.26;99473.72;4973298;28;20030;-79
2023/09/15 02:52:38;;;;;;;21.90;11.10;;;;;;;20.73;69.85;99462.81;4976136;28;20026;-84
2023/09/15 02:55:08;;;;;;;18.30;11.45;;;;;;;20.84;69.54;99456.34;4990137;28;20042;-80
2023/09/15 02:57:33;;;;;;;;;;;;;;;20.88;69.92;99462.84;4974160;28;20034;-78
2023/09/15 02:59:59;;;;;;;30.25;11.90;;;;;;;20.41;71.51;99457.91;4990840;28;19913;-77
2023/09/15 03:02:24;;;;;;;20.23;12.18;;;;;;;20.47;71.70;99464.81;4986924;28;20038;-75
2023/09/15 03:04:50;;;;;;;16.63;11.98;;;;;;;20.21;73.04;99463.13;4990380;28;20049;-75
2023/09/15 03:07:16;;;;;;;22.65;11.90;;;;;;;20.46;72.00;99470.91;4987711;28;20053;-74
2023/09/15 03:09:43;;;;;;;21.13;11.45;;;;;;;20.69;71.14;99470.50;4989141;28;20048;-74
2023/09/15 03:12:08;;;;;;;25.65;12.50;;;;;;;20.75;70.76;99465.22;4989980;28;20034;-74
2023/09/15 03:14:34;;;;;;;20.35;12.05;;;;;;;20.77;70.36;99466.47;4986702;28;20515;-75
2023/09/15 03:17:00;;;;;;;24.65;11.95;;;;;;;20.66;71.35;99470.53;4990260;28;20019;-75
2023/09/15 03:19:25;;;;;;;23.95;11.57;;;;;;;20.55;71.54;99476.19;4989839;28;20029;-75
2023/09/15 03:21:51;;;;;;;23.48;11.30;;;;;;;20.34;72.28;99481.41;4990547;28;20045;-76
2023/09/15 03:24:18;;;;;;;19.95;10.57;;;;;;;20.52;71.46;99477.00;4991020;28;20022;-74
2023/09/15 03:26:44;;;;;;;35.63;13.10;;;;;;;20.38;71.80;99466.41;4985534;28;20450;-76
2023/09/15 03:29:09;;;;;;;23.30;11.38;;;;;;;20.45;71.45;99478.63;4984492;28;20027;-75
2023/09/15 03:31:35;;;;;;;22.75;12.57;;;;;;;20.46;71.04;99473.72;4987206;28;20029;-76
2023/09/15 03:34:00;;;;;;;19.48;11.85;;;;;;;20.03;71.58;99480.09;4972553;28;20033;-76
2023/09/15 03:36:28;;;;;;;30.00;13.32;;;;;;;20.05;71.32;99489.84;4994153;28;20027;-75
2023/09/15 03:38:53;;;;;;;27.10;13.15;;;;;;;19.73;72.51;99490.47;4992416;28;20018;-74
2023/09/15 03:41:19;;;;;;;17.48;12.05;;;;;;;19.42;73.03;99487.03;4994548;28;20530;-75
2023/09/15 03:43:45;;;;;;;24.00;12.15;;;;;;;19.30;73.82;99493.88;4971923;28;20039;-75
2023/09/15 03:46:10;;;;;;;26.48;11.77;;;;;;;19.38;73.65;99503.22;4990151;28;20030;-75
2023/09/15 03:48:36;;;;;;;23.65;11.68;;;;;;;18.98;74.80;99511.41;4978347;28;20038;-75
2023/09/15 03:51:01;;;;;;;21.50;13.18;;;;;;;19.02;74.60;99509.47;4983545;28;20040;-76
2023/09/15 03:53:27;;;;;;;19.52;12.10;;;;;;;19.00;74.67;99511.84;4988894;28;20459;-76
2023/09/15 03:55:52;;;;;;;22.50;11.57;;;;;;;18.81;75.23;99515.69;4990499;28;20403;-74
2023/09/15 03:58:18;;;;;;;24.85;11.90;;;;;;;18.73;75.67;99516.84;4993779;28;20085;-79
2023/09/15 04:00:43;;;;;;;19.77;11.95;;;;;;;18.78;75.63;99524.97;4993808;28;20038;-79
2023/09/15 04:03:09;;;;;;;27.67;12.48;;;;;;;18.82;75.80;99520.16;4992279;28;20042;-79
2023/09/15 04:05:35;;;;;;;24.67;12.68;;;;;;;18.67;76.06;99516.38;4982612;28;20097;-79
2023/09/15 04:08:01;;;;;;;28.50;13.88;;;;;;;18.82;75.73;99525.81;4957001;28;20450;-79
2023/09/15 04:10:26;;;;;;;24.83;12.25;;;;;;;18.77;75.72;99529.84;4976896;28;20038;-79
2023/09/15 04:12:52;;;;;;;18.10;10.93;;;;;;;18.76;75.73;99527.41;4992477;28;20030;-79
2023/09/15 04:15:17;;;;;;;22.33;12.40;;;;;;;18.68;75.92;99523.69;4986438;28;20026;-79
2023/09/15 04:17:43;;;;;;;23.02;11.85;;;;;;;18.67;76.02;99525.69;4976219;28;20563;-79
2023/09/15 04:20:10;;;;;;;27.52;12.85;;;;;;;18.51;76.45;99530.78;4974131;28;20061;-79
2023/09/15 04:22:40;;;;;;;53.65;12.55;;;;;;;18.74;75.72;99533.44;4983950;28;20057;-79
2023/09/15 04:25:07;;;;;;;23.45;11.10;;;;;;;18.83;75.48;99529.47;4987714;28;20030;-79
2023/09/15 04:27:33;;;;;;;34.00;11.98;;;;;;;18.92;74.67;99527.16;4989750;28;20030;-79
2023/09/15 04:29:59;;;;;;;29.27;13.07;;;;;;;18.89;74.66;99533.59;4990625;28;20073;-79
2023/09/15 04:32:26;;;;;;;32.42;11.18;;;;;;;19.00;74.17;99539.38;4990642;28;20508;-79
2023/09/15 04:34:52;;;;;;;24.98;11.35;;;;;;;18.94;74.78;99553.06;4972882;28;20482;-79
2023/09/15 04:37:18;;;;;;;27.38;11.23;;;;;;;18.89;74.47;99565.56;5000083;28;20092;-79
2023/09/15 04:39:43;;;;;;;47.70;14.05;;;;;;;18.78;75.36;99562.66;5012850;28;20459;-79
2023/09/15 04:42:12;;;;;;;24.08;12.30;;;;;;;18.91;74.81;99566.00;4995260;28;20115;-79
2023/09/15 04:44:39;;;;;;;26.08;13.05;;;;;;;18.76;74.81;99561.41;4971113;28;20046;-79
2023/09/15 04:47:05;;;;;;;32.92;12.50;;;;;;;18.97;74.55;99560.78;4988230;28;20033;-79
2023/09/15 04:49:31;;;;;;;20.92;12.63;;;;;;;19.15;73.62;99572.31;4978820;28;20023;-69
2023/09/15 04:51:57;;;;;;;34.03;12.35;;;;;;;19.19;73.31;99575.19;4984675;28;20487;-83
2023/09/15 04:54:22;;;;;;;38.95;13.18;;;;;;;19.16;72.74;99565.44;4991622;28;20113;-82
2023/09/15 04:56:48;;;;;;;31.83;12.43;;;;;;;19.18;72.78;99573.56;4975606;28;20042;-83
2023/09/15 04:59:16;;;;;;;25.23;11.65;;;;;;;19.07;73.24;99567.81;4975444;28;20418;-82
2023/09/15 05:01:45;;;;;;;22.55;11.27;;;;;;;19.10;73.50;99578.34;4975337;28;20053;-84
2023/09/15 05:04:13;;;;;;;23.38;11.00;;;;;;;19.14;73.39;99567.84;4992771;28;20022;-84
2023/09/15 05:06:39;;;;;;;27.13;10.68;;;;;;;19.25;73.02;99567.97;4991687;28;20089;-84
2023/09/15 05:09:05;;;;;;;32.65;11.07;;;;;;;19.12;73.62;99561.78;4989754;28;20069;-84
2023/09/15 05:11:31;;;;;;;33.58;10.55;;;;;;;19.38;72.23;99576.97;4992806;28;20031;-84
2023/09/15 05:13:56;;;;;;;36.15;11.35;;;;;;;19.38;71.95;99562.78;4975015;28;20096;-83
2023/09/15 05:16:23;;;;;;;29.73;11.73;;;;;;;19.32;72.63;99562.34;4992840;28;20037;-83
2023/09/15 05:18:49;;;;;;;39.08;10.98;;;;;;;19.44;72.10;99566.06;4992677;28;20503;-85
2023/09/15 05:21:14;;;;;;;42.70;10.93;;;;;;;19.30;72.57;99566.75;4991499;28;20054;-84
2023/09/15 05:23:40;;;;;;;29.52;11.50;;;;;;;19.56;72.19;99571.44;4988392;28;20069;-77
2023/09/15 05:26:07;;;;;;;23.48;10.82;;;;;;;19.62;71.74;99569.03;4981729;28;20065;-74
2023/09/15 05:28:32;;;;;;;28.65;10.60;;;;;;;19.56;71.43;99570.63;4968532;28;20491;-74
2023/09/15 05:30:59;;;;;;;22.02;9.15;;;;;;;19.73;70.86;99575.59;4982908;28;20030;-76
2023/09/15 05:33:25;;;;;;;31.05;9.65;;;;;;;19.84;70.71;99572.03;4978474;28;20038;-75
2023/09/15 05:35:56;;;;;;;21.73;10.82;;;;;;;19.82;69.83;99583.75;4982143;28;20045;-76
2023/09/15 05:38:26;;;;;;;22.80;10.80;;;;;;;19.74;70.87;99580.06;4981752;28;20101;-75
2023/09/15 05:40:52;;;;;;;20.20;10.25;;;;;;;19.89;70.16;99585.81;4978794;28;20077;-76
2023/09/15 05:43:19;;;;;;;22.23;8.27;;;;;;;20.10;66.91;99581.53;4970949;28;20042;-76
2023/09/15 05:45:45;;;;;;;13.57;6.85;;;;;;;20.12;67.23;99585.59;4981133;28;20117;-78
2023/09/15 05:48:16;;;;;;;14.77;7.82;;;;;;;20.24;67.37;99586.47;4970422;28;20462;-77
2023/09/15 05:50:41;;;;;;;17.75;7.53;;;;;;;20.50;65.87;99587.38;4969792;28;20034;-77
2023/09/15 05:53:07;;;;;;;12.18;7.03;;;;;;;20.65;65.27;99589.03;4985036;28;20078;-77
2023/09/15 05:55:32;;;;;;;21.83;7.13;;;;;;;20.68;65.45;99576.06;4991639;28;20030;-77
2023/09/15 05:57:58;;;;;;;17.30;6.88;;;;;;;20.78;64.84;99595.19;4990524;28;20054;-78
2023/09/15 06:00:24;;;;;;;29.60;7.15;;;;;;;20.86;63.90;99594.00;4991173;28;20038;-80
2023/09/15 06:02:49;;;;;;;17.25;6.53;;;;;;;21.07;62.10;99585.94;4992160;28;20476;-78
2023/09/15 06:05:17;;;;;;;13.07;5.85;;;;;;;21.24;61.43;99593.66;4989756;28;20026;-78
2023/09/15 06:07:43;;;;;;;22.27;5.78;;;;;;;21.33;59.56;99584.69;4980826;28;20034;-77
2023/09/15 06:10:09;;;;;;;14.52;5.20;;;;;;;21.55;58.94;99596.09;4998366;28;20491;-77
2023/09/15 06:12:34;;;;;;;12.65;5.55;;;;;;;21.67;56.80;99592.84;4994478;28;20038;-78
2023/09/15 06:15:00;;;;;;;17.48;6.22;;;;;;;21.78;56.53;99589.19;4992341;28;20025;-78
2023/09/15 06:17:27;;;;;;;46.53;8.20;;;;;;;21.87;57.13;99581.84;4995842;28;20033;-77
2023/09/15 06:19:53;;;;;;;12.80;5.25;;;;;;;21.69;56.60;99583.91;4992315;28;20081;-84
2023/09/15 06:22:19;;;;;;;17.20;6.15;;;;;;;21.57;56.71;99596.47;4974016;28;20049;-80
2023/09/15 06:24:44;;;;;;;17.83;6.28;;;;;;;21.59;57.45;99599.72;4970665;28;20030;-78
2023/09/15 06:27:10;;;;;;;18.75;5.35;;;;;;;21.80;56.78;99595.28;4989638;28;20546;-73
2023/09/15 06:29:35;;;;;;;15.98;6.03;;;;;;;21.96;56.68;99583.44;4973895;28;20196;-74
2023/09/15 06:32:01;;;;;;;9.20;5.60;;;;;;;21.99;55.39;99600.53;4987440;28;20026;-74
2023/09/15 06:34:27;;;;;;;15.07;4.95;;;;;;;22.18;55.21;99589.09;4973336;28;20038;-72
2023/09/15 06:36:52;;;;;;;15.65;5.55;;;;;;;22.06;55.59;99601.72;4973984;28;20022;-73
2023/09/15 06:39:18;;;;;;;7.80;6.25;;;;;;;22.09;56.46;99603.78;4990674;28;20026;-74
2023/09/15 06:41:45;;;;;;;16.17;5.88;;;;;;;21.82;56.00;99601.38;4973314;28;20061;-73
2023/09/15 06:44:11;;;;;;;11.20;5.82;;;;;;;22.07;55.45;99601.31;4973726;28;20404;-74
2023/09/15 06:46:36;;;;;;;12.27;6.28;;;;;;;22.44;54.97;99602.00;4990781;28;20038;-74
2023/09/15 06:49:02;;;;;;;17.67;5.88;;;;;;;22.53;53.75;99605.25;4990456;28;20034;-75
2023/09/15 06:51:28;;;;;;;18.50;6.78;;;;;;;22.83;54.07;99600.22;4989056;28;20030;-77
2023/09/15 06:53:53;;;;;;;11.18;6.10;;;;;;;22.67;53.51;99603.56;4989816;28;20041;-76
2023/09/15 06:56:19;;;;;;;19.80;6.25;;;;;;;22.42;53.78;99602.44;4988213;28;20089;-76
2023/09/15 06:58:44;;;;;;;12.82;6.00;;;;;;;22.44;53.54;99602.81;4988337;28;20030;-77
2023/09/15 07:01:09;;;;;;;16.80;6.55;;;;;;;22.90;52.44;99602.22;4989100;28;20029;-75
2023/09/15 07:03:35;;;;;;;15.05;6.05;;;;;;;22.99;52.38;99599.72;4990105;28;20038;-76
2023/09/15 07:06:01;;;;;;;24.95;6.50;;;;;;;23.06;52.38;99599.69;4972562;28;20089;-76
2023/09/15 07:08:27;;;;;;;17.25;6.25;;;;;;;22.86;51.04;99593.66;4991087;28;20086;-77
2023/09/15 07:10:52;;;;;;;23.52;6.20;;;;;;;23.08;51.69;99602.09;4975767;28;20026;-76
2023/09/15 07:13:18;;;;;;;17.30;5.97;;;;;;;23.46;51.09;99607.16;4974195;28;20026;-76
2023/09/15 07:15:47;;;;;;;12.68;5.85;;;;;;;23.68;50.86;99597.16;4992949;28;20030;-74
2023/09/15 07:18:13;;;;;;;19.05;6.13;;;;;;;23.72;50.25;99590.59;4991382;28;20112;-74
2023/09/15 07:20:38;;;;;;;20.48;6.60;;;;;;;23.65;50.98;99592.31;4975594;28;20118;-78
2023/09/15 07:23:04;;;;;;;15.45;5.80;;;;;;;23.60;50.60;99581.31;4977168;28;20113;-79
2023/09/15 07:25:29;;;;;;;12.02;7.05;;;;;;;24.01;50.22;99587.44;4976243;28;20046;-78
2023/09/15 07:27:55;;;;;;;16.73;6.53;;;;;;;24.20;49.58;99583.19;4994299;28;20038;-79
2023/09/15 07:30:21;;;;;;;23.63;7.68;;;;;;;24.48;49.29;99590.59;4993360;28;20487;-79
2023/09/15 07:32:46;;;;;;;13.70;7.60;;;;;;;24.47;48.58;99573.88;4994221;28;20034;-79
2023/09/15 07:35:12;;;;;;;24.90;7.28;;;;;;;24.22;49.60;99595.81;4994445;28;20030;-79
2023/09/15 07:37:38;;;;;;;14.55;6.97;;;;;;;24.47;48.31;99593.88;4975108;28;20122;-79
2023/09/15 07:40:07;;;;;;;14.90;7.25;;;;;;;24.67;47.79;99588.31;4991294;28;20514;-80
2023/09/15 07:42:33;;;;;;;13.07;6.50;;;;;;;24.76;46.92;99600.03;4993598;28;20033;-80
2023/09/15 07:44:58;;;;;;;18.92;6.47;;;;;;;24.83;47.17;99586.88;4976549;28;20113;-80
2023/09/15 07:47:24;;;;;;;15.70;6.43;;;;;;;25.14;47.25;99584.00;4976494;28;20026;-80
2023/09/15 07:49:49;;;;;;;14.77;7.43;;;;;;;25.32;46.75;99593.06;4975553;28;20026;-80
2023/09/15 07:52:15;;;;;;;26.02;6.43;;;;;;;25.61;45.62;99572.59;4993065;28;20026;-80
2023/09/15 07:54:41;;;;;;;16.23;7.30;;;;;;;26.01;45.43;99594.78;4994145;28;20030;-80
2023/09/15 07:57:06;;;;;;;18.17;7.18;;;;;;;26.11;45.85;99574.94;4975067;28;20053;-79
2023/09/15 07:59:32;;;;;;;18.45;6.68;;;;;;;26.39;44.45;99584.25;4993041;28;20507;-80
2023/09/15 08:01:59;;;;;;;15.88;6.43;;;;;;;26.65;43.17;99579.56;4993197;28;20038;-80
2023/09/15 08:04:25;;;;;;;30.42;9.38;;;;;;;26.86;43.49;99571.72;4992242;28;20026;-79
2023/09/15 08:06:51;;;;;;;17.63;10.05;;;;;;;26.85;43.60;99575.88;4992348;28;20574;-80
2023/09/15 08:09:17;;;;;;;17.20;5.53;;;;;;;26.96;40.47;99578.50;4992829;28;20030;-80
2023/09/15 08:11:43;;;;;;;16.50;7.28;;;;;;;27.00;41.61;99582.13;4990481;28;20108;-80
2023/09/15 08:14:08;;;;;;;26.10;6.82;;;;;;;26.97;42.42;99560.03;4990493;28;20101;-79
2023/09/15 08:16:34;;;;;;;17.13;6.90;;;;;;;26.94;40.24;99561.75;4991844;28;20030;-80
2023/09/15 08:19:00;;;;;;;21.45;8.02;;;;;;;26.45;39.65;99577.56;4976281;28;20431;-79
2023/09/15 08:21:26;;;;;;;19.20;6.30;;;;;;;26.51;40.43;99565.56;4978103;28;20030;-83
2023/09/15 08:23:52;;;;;;;14.88;6.30;;;;;;;26.99;39.96;99566.94;4975784;28;20064;-81
2023/09/15 08:26:17;;;;;;;13.18;6.63;;;;;;;27.16;40.90;99550.53;4988801;28;20069;-81
2023/09/15 08:28:43;;;;;;;21.52;6.78;;;;;;;27.45;41.19;99554.75;4993119;28;20027;-81
2023/09/15 08:31:11;;;;;;;17.85;5.93;;;;;;;27.68;39.86;99555.84;4993782;28;20509;-81
2023/09/15 08:33:36;;;;;;;19.00;6.88;;;;;;;27.72;40.20;99562.28;4994038;28;20570;-81
2023/09/15 08:36:03;;;;;;;16.48;6.55;;;;;;;27.72;39.80;99556.53;4992806;28;20034;-80
2023/09/15 08:38:31;;;;;;;15.20;6.00;;;;;;;27.39;39.14;99557.38;4993072;28;20476;-83
2023/09/15 08:41:04;;;;;;;15.80;6.50;;;;;;;27.46;38.77;99551.44;4991566;28;20030;-76
2023/09/15 08:43:32;;;;;;;17.70;6.15;;;;;;;27.23;39.44;99548.75;4994269;28;20026;-79
2023/09/15 08:45:59;;;;;;;18.33;6.50;;;;;;;27.48;39.52;99542.38;4994705;28;20038;-79
2023/09/15 08:48:27;;;;;;;13.95;7.22;;;;;;;27.37;39.03;99541.84;4991914;28;20038;-82
2023/09/15 08:50:55;;;;;;;15.38;5.80;;;;;;;27.73;38.52;99540.91;4991000;28;20184;-82
2023/09/15 08:53:22;;;;;;;11.93;5.45;;;;;;;27.43;37.64;99548.66;4991597;28;20026;-80
2023/09/15 08:55:47;;;;;;;13.63;6.47;;;;;;;27.83;38.23;99539.03;4943143;28;20060;-78
2023/09/15 08:58:13;;;;;;;18.38;5.75;;;;;;;27.84;35.93;99544.31;4991463;28;20383;-76
2023/09/15 09:00:39;;;;;;;13.70;6.55;;;;;;;27.93;35.88;99545.72;4992966;28;20062;-75
2023/09/15 09:03:04;;;;;;;16.42;5.88;;;;;;;27.70;35.92;99541.81;4986217;28;20819;-75
2023/09/15 09:05:31;;;;;;;20.83;6.30;;;;;;;27.93;35.22;99537.09;4986025;28;20033;-78
2023/09/15 09:07:59;;;;;;;14.07;5.57;;;;;;;28.11;35.83;99531.63;4989368;28;20045;-77
2023/09/15 09:10:25;;;;;;;13.57;6.50;;;;;;;27.85;36.47;99543.03;4976791;28;20133;-80
2023/09/15 09:12:51;;;;;;;18.50;6.43;;;;;;;27.93;36.25;99537.09;4989076;28;20033;-80
2023/09/15 09:15:17;;;;;;;14.13;5.80;;;;;;;28.03;36.36;99533.13;4972138;28;20026;-79
2023/09/15 09:17:43;;;;;;;10.68;6.47;;;;;;;28.29;36.22;99521.72;4972343;28;20034;-79
2023/09/15 09:20:25;;;;;;;19.98;7.47;;;;;;;28.45;36.07;99521.63;4972577;28;20026;-78
2023/09/15 09:22:51;;;;;;;15.35;8.10;;;;;;;28.75;37.50;99533.03;4971769;28;20100;-77
2023/09/15 09:25:28;;;;;;;11.73;6.47;;;;;;;29.00;36.51;99531.47;4986195;28;20113;-77
2023/09/15 09:27:55;;;;;;;14.82;5.40;;;;;;;29.01;36.46;99533.06;4989324;28;20038;-77
2023/09/15 09:30:23;;;;;;;15.73;5.95;;;;;;;28.96;36.61;99527.91;4982294;28;20121;-76
2023/09/15 09:32:49;;;;;;;13.43;6.47;;;;;;;29.24;36.41;99523.25;4976475;28;20034;-77
2023/09/15 09:35:15;;;;;;;16.83;6.85;;;;;;;29.44;37.47;99518.53;4982899;28;20117;-81
2023/09/15 09:37:41;;;;;;;19.17;6.43;;;;;;;29.70;35.92;99525.03;4987544;28;20419;-80
2023/09/15 09:40:07;;;;;;;19.90;5.20;;;;;;;29.75;34.96;99520.75;4987903;28;20499;-74
2023/09/15 09:42:34;;;;;;;10.90;5.75;;;;;;;29.63;34.96;99507.97;4985916;28;20089;-80
2023/09/15 09:45:00;;;;;;;14.70;6.60;;;;;;;29.29;35.59;99502.50;4969305;28;20487;-77
2023/09/15 09:47:26;;;;;;;13.60;6.50;;;;;;;29.53;34.68;99510.78;4984527;28;20062;-78
2023/09/15 09:49:52;;;;;;;21.15;6.55;;;;;;;29.77;34.56;99504.56;4965282;28;20066;-80
2023/09/15 09:52:17;;;;;;;17.75;9.05;;;;;;;30.12;35.19;99513.19;4983126;28;20060;-81
2023/09/15 09:54:43;;;;;;;15.65;5.35;;;;;;;30.39;34.11;99497.34;4987438;28;20057;-83
2023/09/15 09:57:08;;;;;;;17.73;6.10;;;;;;;30.59;32.65;99495.34;4964576;28;20921;-82
2023/09/15 09:59:36;;;;;;;20.75;6.20;;;;;;;30.50;33.54;99499.81;4987275;28;20039;-81
2023/09/15 10:02:02;;;;;;;24.45;7.22;;;;;;;30.40;33.38;99498.16;4972060;28;20551;-81
2023/09/15 10:04:28;;;;;;;17.25;5.82;;;;;;;30.57;32.72;99500.78;4987401;28;20038;-82
2023/09/15 10:06:53;;;;;;;17.90;6.47;;;;;;;30.62;32.36;99498.09;4984596;28;20041;-82
2023/09/15 10:09:19;;;;;;;14.60;6.60;;;;;;;30.48;33.48;99501.56;4989763;28;20053;-81
2023/09/15 10:11:45;;;;;;;26.27;7.30;;;;;;;30.70;32.56;99494.97;4968650;28;20026;-82
2023/09/15 10:14:11;;;;;;;15.73;5.78;;;;;;;30.73;33.33;99494.00;4991980;28;20080;-82
2023/09/15 10:16:37;;;;;;;31.65;6.80;;;;;;;30.70;33.54;99492.84;4987128;28;20038;-83
2023/09/15 10:19:03;;;;;;;18.38;6.75;;;;;;;30.61;33.34;99495.69;4993031;28;20026;-80
2023/09/15 10:21:32;;;;;;;17.73;8.55;;;;;;;30.89;32.89;99496.66;4990378;28;20164;-82
2023/09/15 10:24:06;;;;;;;13.68;7.18;;;;;;;31.06;33.11;99487.69;4988105;28;20022;-75
2023/09/15 10:26:33;;;;;;;16.02;6.75;;;;;;;31.05;32.96;99483.22;4983949;28;20061;-76
2023/09/15 10:29:01;;;;;;;21.90;6.47;;;;;;;31.12;33.68;99480.00;4991224;28;20082;-76
2023/09/15 10:31:29;;;;;;;11.35;6.28;;;;;;;30.83;32.89;99472.56;4983870;28;20057;-76
2023/09/15 10:33:58;;;;;;;14.90;6.22;;;;;;;31.04;32.27;99472.94;4983249;28;20072;-76
2023/09/15 10:36:23;;;;;;;12.38;7.55;;;;;;;31.08;32.73;99473.59;4989187;28;20053;-76
2023/09/15 10:38:49;;;;;;;24.38;7.43;;;;;;;31.10;32.29;99468.94;4986392;28;20050;-76
2023/09/15 10:41:28;;;;;;;17.60;6.07;;;;;;;31.17;31.60;99472.78;4989709;28;20076;-78
2023/09/15 10:43:55;;;;;;;32.03;8.55;;;;;;;31.05;31.86;99474.53;4990302;28;20030;-76
2023/09/15 10:46:20;;;;;;;12.80;6.68;;;;;;;31.09;32.37;99472.31;4993940;28;20807;-76
2023/09/15 10:48:48;;;;;;;13.60;7.38;;;;;;;31.16;32.33;99472.00;4987940;28;20128;-76
2023/09/15 10:51:18;;;;;;;13.95;6.88;;;;;;;31.13;32.68;99467.16;4986402;28;20042;-76
2023/09/15 10:53:45;;;;;;;10.88;6.07;;;;;;;31.35;31.90;99463.38;4991881;28;20605;-76
2023/09/15 10:56:12;;;;;;;15.05;7.47;;;;;;;31.25;32.30;99459.69;4976072;28;20056;-77
2023/09/15 10:58:38;;;;;;;17.73;8.05;;;;;;;30.90;32.03;99462.78;4991633;28;20030;-77
2023/09/15 11:01:05;;;;;;;18.50;7.47;;;;;;;31.16;32.50;99457.56;4993191;28;20026;-77
2023/09/15 11:03:31;;;;;;;19.50;8.80;;;;;;;31.27;33.25;99462.09;4993192;28;20030;-76
2023/09/15 11:05:58;;;;;;;19.08;7.47;;;;;;;31.43;33.05;99456.00;4991621;28;20566;-77
2023/09/15 11:08:25;;;;;;;19.40;7.85;;;;;;;31.43;32.93;99463.88;4984791;28;20018;-77
2023/09/15 11:11:07;;;;;;;16.58;7.47;;;;;;;31.09;32.92;99457.88;4977656;28;20046;-78
2023/09/15 11:13:33;;;;;;;16.08;6.93;;;;;;;31.30;33.10;99459.03;4974358;28;20496;-77
2023/09/15 11:16:03;;;;;;;20.30;7.18;;;;;;;31.21;33.22;99447.47;4990922;28;20081;-77
2023/09/15 11:18:32;;;;;;;20.15;8.25;;;;;;;31.34;32.35;99450.22;4992722;28;20502;-78
2023/09/15 11:20:58;;;;;;;15.60;7.60;;;;;;;31.52;32.29;99446.53;4978367;28;20038;-78